Time;durP1;ratioP1;P1;durP2;ratioP2;P2;SDS_P1;SDS_P2;PMS_P1;PMS_P2;Temp;Humidity;BMP_temperature;BMP_pressure;BME280_temperature;BME280_humidity;BME280_pressure;Samples;Min_cycle;Max_cycle;Signal;HPM_P1;HPM_P2
2023/11/15 00:01:04;;;;;;;;;;;15.00;81.00;;;;;;5072892;28;19926;-65
2023/11/15 00:03:30;;;;;;;;;;;14.90;80.70;;;;;;5073531;28;19971;-69
2023/11/15 00:05:56;;;;;;;;;;;14.90;81.30;;;;;;5072117;28;19923;-66
2023/11/15 00:08:22;;;;;;;;;;;14.90;80.60;;;;;;5072030;28;19924;-69
2023/11/15 00:10:48;;;;;;;;;;;14.90;81.30;;;;;;5072935;28;20273;-67
2023/11/15 00:13:14;;;;;;;;;;;14.90;81.10;;;;;;5073484;28;20285;-68
2023/11/15 00:15:40;;;;;;;;;;;14.90;81.00;;;;;;5055260;28;20373;-67
2023/11/15 00:18:06;;;;;;;;;;;14.90;80.80;;;;;;5073300;28;20034;-66
2023/11/15 00:20:33;;;;;;;;;;;14.90;80.20;;;;;;5072594;28;19991;-66
2023/11/15 00:23:01;;;;;;;;;;;14.90;80.80;;;;;;5071795;28;19970;-68
2023/11/15 00:25:28;;;;;;;;;;;14.90;80.90;;;;;;5072184;28;20011;-66
2023/11/15 00:27:57;;;;;;;;;;;14.80;80.80;;;;;;5071790;28;19967;-68
2023/11/15 00:30:23;;;;;;;;;;;14.80;81.00;;;;;;5071302;28;20294;-68
2023/11/15 00:32:50;;;;;;;;;;;14.80;80.70;;;;;;5073070;28;19944;-67
2023/11/15 00:35:16;;;;;;;;;;;14.90;80.30;;;;;;5071809;28;20011;-67
2023/11/15 00:37:42;;;;;;;;;;;14.90;80.20;;;;;;5073170;28;19931;-67
2023/11/15 00:40:29;;;;;;;;;;;14.90;80.70;;;;;;5071022;28;19942;-67
2023/11/15 00:42:55;;;;;;;;;;;14.90;80.60;;;;;;5071642;28;19925;-69
2023/11/15 00:45:23;;;;;;;;;;;14.90;80.70;;;;;;5071676;28;19961;-67
2023/11/15 00:47:50;;;;;;;;;;;14.90;80.60;;;;;;5072946;28;19928;-69
2023/11/15 00:50:15;;;;;;;;;;;14.90;80.00;;;;;;5072068;28;19923;-66
2023/11/15 00:52:41;;;;;;;;;;;14.80;80.50;;;;;;5072340;28;20302;-67
2023/11/15 00:55:08;;;;;;;;;;;14.80;80.50;;;;;;5072819;28;19916;-67
2023/11/15 00:57:34;;;;;;;;;;;14.80;80.30;;;;;;5071464;28;19925;-67
2023/11/15 01:00:01;;;;;;;;;;;14.90;80.50;;;;;;5071672;28;20015;-67
2023/11/15 01:02:29;;;;;;;;;;;14.90;80.30;;;;;;5070650;28;19924;-67
2023/11/15 01:04:55;;;;;;;;;;;14.90;80.50;;;;;;5071479;28;19924;-68
2023/11/15 01:07:21;;;;;;;;;;;14.90;81.30;;;;;;5072457;28;20328;-68
2023/11/15 01:09:47;;;;;;;;;;;14.80;80.30;;;;;;5071346;28;19920;-69
2023/11/15 01:12:13;;;;;;;;;;;14.80;80.50;;;;;;5072238;28;19925;-68
2023/11/15 01:14:39;;;;;;;;;;;14.80;80.40;;;;;;5071133;28;19943;-67
2023/11/15 01:17:05;;;;;;;;;;;14.80;80.40;;;;;;5071239;28;19917;-69
2023/11/15 01:19:31;;;;;;;;;;;14.80;80.40;;;;;;5071245;28;19927;-67
2023/11/15 01:24:41;;;;;;;;;;;14.80;80.50;;;;;;5072716;28;20027;-67
2023/11/15 01:27:07;;;;;;;;;;;14.80;80.40;;;;;;5072327;28;19917;-67
2023/11/15 01:29:33;;;;;;;;;;;14.80;80.30;;;;;;5072490;28;19925;-67
2023/11/15 01:31:59;;;;;;;;;;;14.80;80.40;;;;;;5072040;28;20004;-68
2023/11/15 01:34:25;;;;;;;;;;;14.70;80.50;;;;;;5071183;28;20023;-68
2023/11/15 01:36:51;;;;;;;;;;;14.70;80.60;;;;;;5071215;28;19961;-67
2023/11/15 01:39:17;;;;;;;;;;;14.70;80.60;;;;;;5071393;28;20361;-66
2023/11/15 01:41:48;;;;;;;;;;;14.70;80.60;;;;;;5071680;28;19926;-67
2023/11/15 01:44:34;;;;;;;;;;;14.70;80.50;;;;;;5055175;28;19929;-67
2023/11/15 01:47:00;;;;;;;;;;;14.70;80.60;;;;;;5070891;28;20320;-69
2023/11/15 01:49:27;;;;;;;;;;;14.60;80.50;;;;;;5071018;28;19916;-67
2023/11/15 01:51:54;;;;;;;;;;;14.60;80.70;;;;;;5071532;28;19930;-67
2023/11/15 01:54:20;;;;;;;;;;;14.60;80.60;;;;;;5070785;28;19974;-68
2023/11/15 01:56:47;;;;;;;;;;;14.50;80.70;;;;;;5054245;28;19946;-68
2023/11/15 01:59:13;;;;;;;;;;;14.50;80.70;;;;;;5072630;28;19924;-67
2023/11/15 02:01:40;;;;;;;;;;;14.50;80.80;;;;;;5072965;28;19920;-67
2023/11/15 02:04:08;;;;;;;;;;;14.50;80.90;;;;;;5074734;28;19939;-66
2023/11/15 02:06:35;;;;;;;;;;;14.50;80.90;;;;;;5074339;28;19920;-68
2023/11/15 02:09:01;;;;;;;;;;;14.50;81.00;;;;;;5058005;28;19925;-67
2023/11/15 02:11:27;;;;;;;;;;;14.50;81.10;;;;;;5056886;28;19920;-67
2023/11/15 02:14:07;;;;;;;;;;;14.40;81.10;;;;;;5074533;28;19936;-66
2023/11/15 02:16:33;;;;;;;;;;;14.40;81.00;;;;;;5074471;28;20372;-68
2023/11/15 02:18:58;;;;;;;;;;;14.40;81.10;;;;;;5074466;28;19974;-68
2023/11/15 02:21:24;;;;;;;;;;;14.40;81.10;;;;;;5073409;28;20339;-68
2023/11/15 02:23:51;;;;;;;;;;;14.40;81.20;;;;;;5075584;28;19924;-68
2023/11/15 02:26:17;;;;;;;;;;;14.40;81.10;;;;;;5057307;28;20405;-68
2023/11/15 02:28:42;;;;;;;;;;;14.40;81.20;;;;;;5073908;28;19924;-67
2023/11/15 02:31:10;;;;;;;;;;;14.40;81.20;;;;;;5074810;28;19920;-67
2023/11/15 02:33:36;;;;;;;;;;;14.30;81.30;;;;;;5073947;28;19925;-67
2023/11/15 02:36:02;;;;;;;;;;;14.20;81.70;;;;;;5073984;28;19931;-68
2023/11/15 02:38:28;;;;;;;;;;;14.20;81.30;;;;;;5057144;28;20266;-69
2023/11/15 02:40:54;;;;;;;;;;;14.20;82.10;;;;;;5074495;28;19920;-68
2023/11/15 02:43:20;;;;;;;;;;;14.20;82.30;;;;;;5073804;28;19929;-68
2023/11/15 02:45:46;;;;;;;;;;;14.20;82.10;;;;;;5073852;28;19962;-68
2023/11/15 02:48:11;;;;;;;;;;;14.20;81.90;;;;;;5075220;28;19925;-68
2023/11/15 02:50:37;;;;;;;;;;;14.20;81.80;;;;;;5072958;28;20007;-67
2023/11/15 02:53:03;;;;;;;;;;;14.20;81.70;;;;;;5074592;28;19989;-68
2023/11/15 02:55:30;;;;;;;;;;;14.20;81.50;;;;;;5074845;28;19916;-67
2023/11/15 02:57:56;;;;;;;;;;;14.30;81.40;;;;;;5073678;28;19931;-67
2023/11/15 03:00:22;;;;;;;;;;;14.30;81.30;;;;;;5074156;28;19920;-68
2023/11/15 03:02:49;;;;;;;;;;;14.30;81.20;;;;;;5073343;28;19930;-67
2023/11/15 03:05:16;;;;;;;;;;;14.30;81.30;;;;;;5074795;28;20186;-68
2023/11/15 03:07:42;;;;;;;;;;;14.30;81.40;;;;;;5073237;28;19932;-67
2023/11/15 03:10:08;;;;;;;;;;;14.40;81.40;;;;;;5073885;28;20007;-68
2023/11/15 03:12:34;;;;;;;;;;;14.30;80.70;;;;;;5074412;28;19935;-67
2023/11/15 03:15:00;;;;;;;;;;;14.40;81.10;;;;;;5073272;28;19916;-67
2023/11/15 03:17:26;;;;;;;;;;;14.40;81.10;;;;;;5074190;28;19985;-67
2023/11/15 03:19:52;;;;;;;;;;;14.40;81.10;;;;;;5074382;28;19920;-68
2023/11/15 03:22:18;;;;;;;;;;;14.40;81.10;;;;;;5072302;28;19977;-68
2023/11/15 03:24:47;;;;;;;;;;;14.40;81.10;;;;;;5073087;28;19928;-68
2023/11/15 03:27:13;;;;;;;;;;;14.30;81.20;;;;;;5073916;28;19923;-68
2023/11/15 03:29:39;;;;;;;;;;;14.30;81.30;;;;;;5072874;28;19956;-68
2023/11/15 03:32:05;;;;;;;;;;;14.40;81.20;;;;;;5073874;28;20262;-68
2023/11/15 03:34:31;;;;;;;;;;;14.40;81.10;;;;;;5072718;28;20190;-67
2023/11/15 03:36:58;;;;;;;;;;;14.40;81.20;;;;;;5072773;28;20024;-68
2023/11/15 03:39:26;;;;;;;;;;;14.40;81.30;;;;;;5072622;28;19920;-67
2023/11/15 03:41:52;;;;;;;;;;;14.40;81.20;;;;;;5072131;28;20015;-67
2023/11/15 03:44:18;;;;;;;;;;;14.40;80.80;;;;;;5072770;28;20011;-67
2023/11/15 03:46:44;;;;;;;;;;;14.30;81.30;;;;;;5072591;28;19929;-68
2023/11/15 03:49:11;;;;;;;;;;;14.40;81.10;;;;;;5072654;28;20384;-66
2023/11/15 03:51:37;;;;;;;;;;;14.40;81.80;;;;;;5071895;28;19925;-68
2023/11/15 03:54:03;;;;;;;;;;;14.40;82.10;;;;;;5072300;28;19924;-67
2023/11/15 03:56:29;;;;;;;;;;;14.40;82.20;;;;;;5072294;28;19924;-67
2023/11/15 03:58:55;;;;;;;;;;;14.40;82.20;;;;;;5073956;28;19925;-67
2023/11/15 04:01:21;;;;;;;;;;;14.40;82.20;;;;;;5072799;28;19920;-68
2023/11/15 04:03:47;;;;;;;;;;;14.40;82.20;;;;;;5055958;28;20082;-67
2023/11/15 04:06:12;;;;;;;;;;;14.40;82.20;;;;;;5055520;28;19917;-68
2023/11/15 04:08:40;;;;;;;;;;;14.40;82.40;;;;;;5071986;28;19939;-68
2023/11/15 04:11:07;;;;;;;;;;;14.30;82.60;;;;;;5071603;28;20404;-69
2023/11/15 04:13:51;;;;;;;;;;;14.20;82.60;;;;;;5073557;28;20281;-67
2023/11/15 04:16:17;;;;;;;;;;;14.10;82.70;;;;;;5073338;28;19923;-68
2023/11/15 04:18:43;;;;;;;;;;;14.10;82.80;;;;;;5072015;28;19928;-67
2023/11/15 04:21:09;;;;;;;;;;;14.10;82.60;;;;;;5072457;28;20385;-67
2023/11/15 04:23:36;;;;;;;;;;;14.10;82.40;;;;;;5072874;28;20050;-68
2023/11/15 04:26:02;;;;;;;;;;;14.10;81.80;;;;;;5055438;28;20023;-67
2023/11/15 04:28:28;;;;;;;;;;;14.00;81.80;;;;;;5073069;28;20365;-66
2023/11/15 04:30:54;;;;;;;;;;;14.10;82.60;;;;;;5072444;28;20012;-68
2023/11/15 04:33:20;;;;;;;;;;;14.00;82.60;;;;;;5073041;28;20011;-67
2023/11/15 04:35:46;;;;;;;;;;;14.00;82.70;;;;;;5071637;28;19928;-67
2023/11/15 04:38:12;;;;;;;;;;;14.00;83.00;;;;;;5072884;28;20281;-69
2023/11/15 04:40:38;;;;;;;;;;;13.90;83.10;;;;;;5072106;28;19978;-68
2023/11/15 04:43:04;;;;;;;;;;;13.90;83.10;;;;;;5073174;28;19958;-67
2023/11/15 04:45:30;;;;;;;;;;;13.80;83.00;;;;;;5071542;28;20274;-67
2023/11/15 04:47:56;;;;;;;;;;;13.80;83.20;;;;;;5055087;28;19970;-66
2023/11/15 04:50:23;;;;;;;;;;;13.80;83.20;;;;;;5072077;28;19929;-68
2023/11/15 04:52:48;;;;;;;;;;;13.80;83.30;;;;;;5071147;28;19924;-66
2023/11/15 04:55:14;;;;;;;;;;;13.80;83.10;;;;;;5071565;28;19982;-69
2023/11/15 04:57:40;;;;;;;;;;;13.70;83.10;;;;;;5072689;28;20307;-69
2023/11/15 05:00:10;;;;;;;;;;;13.70;82.40;;;;;;5071093;28;20296;-67
2023/11/15 05:02:36;;;;;;;;;;;13.70;83.00;;;;;;5071403;28;20381;-67
2023/11/15 05:05:04;;;;;;;;;;;13.60;82.70;;;;;;5071590;28;19923;-69
2023/11/15 05:07:32;;;;;;;;;;;13.60;82.90;;;;;;5071381;28;20373;-68
2023/11/15 05:09:58;;;;;;;;;;;13.50;83.20;;;;;;5071482;28;20003;-68
2023/11/15 05:12:24;;;;;;;;;;;13.50;83.20;;;;;;5072163;28;20415;-67
2023/11/15 05:14:50;;;;;;;;;;;13.50;83.50;;;;;;5071344;28;19917;-67
2023/11/15 05:17:16;;;;;;;;;;;13.50;83.60;;;;;;5071341;28;20425;-68
2023/11/15 05:19:42;;;;;;;;;;;13.40;83.50;;;;;;5071248;28;20297;-67
2023/11/15 05:22:08;;;;;;;;;;;13.30;83.40;;;;;;5071766;28;19947;-68
2023/11/15 05:24:35;;;;;;;;;;;13.30;83.70;;;;;;5071359;28;19924;-68
2023/11/15 05:27:02;;;;;;;;;;;13.30;83.70;;;;;;5071097;28;20404;-69
2023/11/15 05:29:30;;;;;;;;;;;13.20;84.20;;;;;;5071084;28;19920;-67
2023/11/15 05:31:56;;;;;;;;;;;13.10;84.60;;;;;;5072167;28;19921;-68
2023/11/15 05:34:22;;;;;;;;;;;13.10;84.40;;;;;;5071934;28;19927;-69
2023/11/15 05:36:47;;;;;;;;;;;13.10;84.50;;;;;;5074031;28;19924;-66
2023/11/15 05:39:14;;;;;;;;;;;13.10;84.70;;;;;;5074348;28;19931;-67
2023/11/15 05:41:39;;;;;;;;;;;13.00;84.90;;;;;;5074119;28;20463;-68
2023/11/15 05:44:05;;;;;;;;;;;13.00;85.20;;;;;;5074708;28;19924;-67
2023/11/15 05:46:33;;;;;;;;;;;13.00;85.30;;;;;;5076078;28;19917;-67
2023/11/15 05:49:00;;;;;;;;;;;12.90;85.30;;;;;;5075095;28;19969;-68
2023/11/15 05:51:26;;;;;;;;;;;12.90;85.30;;;;;;5075242;28;19927;-69
2023/11/15 05:53:51;;;;;;;;;;;12.90;85.80;;;;;;5074227;28;19924;-67
2023/11/15 05:56:17;;;;;;;;;;;12.90;85.50;;;;;;5075883;28;19917;-68
2023/11/15 05:58:45;;;;;;;;;;;12.90;85.20;;;;;;5074634;28;19935;-67
2023/11/15 06:01:12;;;;;;;;;;;13.00;85.00;;;;;;5075257;28;20007;-69
2023/11/15 06:03:38;;;;;;;;;;;12.90;85.00;;;;;;5075562;28;19976;-67
2023/11/15 06:06:05;;;;;;;;;;;12.90;84.40;;;;;;5076102;28;19920;-68
2023/11/15 06:08:30;;;;;;;;;;;12.90;84.90;;;;;;5075328;28;19942;-68
2023/11/15 06:10:56;;;;;;;;;;;12.90;84.90;;;;;;5073931;28;19925;-68
2023/11/15 06:13:24;;;;;;;;;;;12.90;84.90;;;;;;5075599;28;19931;-67
2023/11/15 06:15:50;;;;;;;;;;;12.90;85.00;;;;;;5075572;28;20385;-67
2023/11/15 06:18:16;;;;;;;;;;;12.90;85.00;;;;;;5075682;28;19971;-69
2023/11/15 06:20:42;;;;;;;;;;;13.00;84.70;;;;;;5073545;28;19973;-67
2023/11/15 06:23:08;;;;;;;;;;;13.00;84.60;;;;;;5075450;28;19928;-68
2023/11/15 06:25:35;;;;;;;;;;;13.00;84.40;;;;;;5075361;28;19920;-67
2023/11/15 06:28:03;;;;;;;;;;;13.10;84.40;;;;;;5073986;28;19959;-67
2023/11/15 06:30:29;;;;;;;;;;;13.10;84.40;;;;;;5073413;28;19959;-69
2023/11/15 06:32:56;;;;;;;;;;;13.10;84.20;;;;;;5073970;28;20369;-67
2023/11/15 06:35:21;;;;;;;;;;;13.10;83.70;;;;;;5075038;28;19917;-67
2023/11/15 06:37:48;;;;;;;;;;;13.00;84.20;;;;;;5075106;28;20350;-68
2023/11/15 06:40:33;;;;;;;;;;;13.00;84.30;;;;;;5073277;28;19926;-68
2023/11/15 06:42:58;;;;;;;;;;;13.00;84.50;;;;;;5075331;28;19925;-69
2023/11/15 06:45:24;;;;;;;;;;;12.90;84.60;;;;;;5074985;28;19920;-69
2023/11/15 06:47:51;;;;;;;;;;;12.90;84.70;;;;;;5074498;28;19925;-67
2023/11/15 06:50:18;;;;;;;;;;;12.90;84.70;;;;;;5073197;28;20305;-69
2023/11/15 06:52:45;;;;;;;;;;;12.80;84.30;;;;;;5074542;28;19925;-68
2023/11/15 06:55:11;;;;;;;;;;;12.80;84.60;;;;;;5074653;28;19916;-69
2023/11/15 06:57:39;;;;;;;;;;;12.80;84.90;;;;;;5073619;28;19928;-67
2023/11/15 07:00:08;;;;;;;;;;;12.90;84.80;;;;;;5073150;28;20377;-67
2023/11/15 07:02:35;;;;;;;;;;;12.90;85.20;;;;;;5073270;28;19935;-67
2023/11/15 07:05:03;;;;;;;;;;;13.00;84.90;;;;;;5073477;28;19956;-68
2023/11/15 07:07:30;;;;;;;;;;;13.00;84.80;;;;;;5074564;28;19964;-68
2023/11/15 07:09:56;;;;;;;;;;;13.00;84.80;;;;;;5074577;28;19916;-68
2023/11/15 07:12:23;;;;;;;;;;;13.00;84.70;;;;;;5055964;28;19932;-67
2023/11/15 07:14:51;;;;;;;;;;;13.10;84.60;;;;;;5073385;28;19943;-66
2023/11/15 07:17:20;;;;;;;;;;;13.10;84.40;;;;;;5073020;28;19916;-68
2023/11/15 07:20:05;;;;;;;;;;;13.20;84.20;;;;;;5073254;28;19916;-67
2023/11/15 07:22:31;;;;;;;;;;;13.30;84.10;;;;;;5072292;28;20007;-68
2023/11/15 07:25:00;;;;;;;;;;;13.40;84.10;;;;;;5073161;28;20309;-69
2023/11/15 07:27:26;;;;;;;;;;;13.40;83.90;;;;;;5073972;28;20289;-67
2023/11/15 07:29:53;;;;;;;;;;;13.50;83.80;;;;;;5074099;28;19916;-67
2023/11/15 07:32:19;;;;;;;;;;;13.60;83.80;;;;;;5055686;28;20531;-67
2023/11/15 07:34:45;;;;;;;;;;;13.60;84.30;;;;;;5073967;28;20403;-67
2023/11/15 07:37:11;;;;;;;;;;;13.70;84.40;;;;;;5073919;28;19963;-68
2023/11/15 07:39:37;;;;;;;;;;;13.90;84.20;;;;;;5073772;28;20339;-67
2023/11/15 07:42:04;;;;;;;;;;;14.00;84.00;;;;;;5072257;28;20408;-67
2023/11/15 07:44:30;;;;;;;;;;;14.20;83.30;;;;;;5072701;28;19943;-69
2023/11/15 07:46:58;;;;;;;;;;;14.40;83.00;;;;;;5072595;28;20007;-68
2023/11/15 07:49:26;;;;;;;;;;;14.60;82.70;;;;;;5074276;28;20015;-66
2023/11/15 07:51:52;;;;;;;;;;;14.80;82.10;;;;;;5071929;28;19924;-68
2023/11/15 07:54:19;;;;;;;;;;;14.90;82.20;;;;;;5072205;28;19998;-67
2023/11/15 07:56:45;;;;;;;;;;;14.90;82.50;;;;;;5072327;28;19951;-68
2023/11/15 07:59:11;;;;;;;;;;;14.90;82.60;;;;;;5073266;28;19932;-68
2023/11/15 08:01:38;;;;;;;;;;;14.90;82.10;;;;;;5073139;28;20301;-68
2023/11/15 08:04:06;;;;;;;;;;;15.00;81.90;;;;;;5055742;28;20023;-69
2023/11/15 08:06:50;;;;;;;;;;;15.00;82.40;;;;;;5073361;28;19916;-67
2023/11/15 08:09:27;;;;;;;;;;;15.10;82.40;;;;;;5073708;28;19960;-69
2023/11/15 08:12:12;;;;;;;;;;;15.10;82.40;;;;;;5071712;28;20324;-69
2023/11/15 08:14:37;;;;;;;;;;;15.10;82.30;;;;;;5073273;28;19994;-68
2023/11/15 08:17:04;;;;;;;;;;;15.10;82.50;;;;;;5063887;28;19999;-67
2023/11/15 08:19:29;;;;;;;;;;;15.00;81.80;;;;;;5035354;28;19966;-67
2023/11/15 08:21:56;;;;;;;;;;;15.10;82.50;;;;;;5051263;28;20015;-67
2023/11/15 08:24:22;;;;;;;;;;;15.00;82.40;;;;;;5053539;28;19980;-67
2023/11/15 08:27:08;;;;;;;;;;;15.00;82.40;;;;;;5053152;28;19920;-67
2023/11/15 08:29:34;;;;;;;;;;;15.00;82.10;;;;;;5053128;28;19928;-69
2023/11/15 08:32:00;;;;;;;;;;;15.10;82.20;;;;;;5050846;28;19963;-67
2023/11/15 08:34:26;;;;;;;;;;;15.10;82.10;;;;;;5051504;28;20025;-69
2023/11/15 08:36:53;;;;;;;;;;;15.10;81.90;;;;;;5052254;28;19917;-67
2023/11/15 08:39:19;;;;;;;;;;;15.20;81.90;;;;;;5053262;28;19917;-68
2023/11/15 08:41:46;;;;;;;;;;;15.20;81.70;;;;;;5051219;28;20020;-68
2023/11/15 08:44:12;;;;;;;;;;;15.40;81.20;;;;;;5053291;28;19922;-68
2023/11/15 08:46:57;;;;;;;;;;;15.50;80.80;;;;;;5035005;28;20338;-67
2023/11/15 08:49:26;;;;;;;;;;;15.60;80.40;;;;;;5052576;28;19928;-69
2023/11/15 08:51:52;;;;;;;;;;;15.70;80.40;;;;;;5052421;28;19932;-67
2023/11/15 08:54:18;;;;;;;;;;;15.70;79.90;;;;;;5052588;28;19978;-67
2023/11/15 08:56:45;;;;;;;;;;;15.70;80.60;;;;;;5034932;28;19921;-69
2023/11/15 08:59:13;;;;;;;;;;;15.60;80.50;;;;;;5035085;28;19924;-68
2023/11/15 09:01:41;;;;;;;;;;;15.70;79.90;;;;;;5052072;28;20374;-68
2023/11/15 09:04:07;;;;;;;;;;;15.80;79.40;;;;;;5051607;28;20023;-67
2023/11/15 09:06:34;;;;;;;;;;;15.80;79.40;;;;;;5051384;28;19917;-68
2023/11/15 09:09:03;;;;;;;;;;;15.80;80.10;;;;;;5051361;28;20397;-69
2023/11/15 09:11:30;;;;;;;;;;;15.90;79.70;;;;;;5054892;28;19920;-67
2023/11/15 09:13:56;;;;;;;;;;;16.00;79.10;;;;;;5055596;28;19929;-68
2023/11/15 09:16:22;;;;;;;;;;;16.20;78.90;;;;;;5056674;28;20004;-68
2023/11/15 09:18:49;;;;;;;;;;;16.30;78.40;;;;;;5055531;28;19935;-68
2023/11/15 09:21:16;;;;;;;;;;;16.30;78.00;;;;;;5054535;28;19927;-67
2023/11/15 09:23:42;;;;;;;;;;;16.40;77.90;;;;;;5055313;28;19963;-68
2023/11/15 09:26:27;;;;;;;;;;;16.50;77.50;;;;;;5055378;28;19917;-67
2023/11/15 09:28:53;;;;;;;;;;;16.60;77.20;;;;;;5038341;28;19929;-67
2023/11/15 09:31:19;;;;;;;;;;;16.70;77.40;;;;;;5054730;28;19935;-69
2023/11/15 09:33:45;;;;;;;;;;;16.70;77.10;;;;;;5054943;28;20301;-67
2023/11/15 09:36:11;;;;;;;;;;;16.70;77.10;;;;;;5056387;28;20333;-67
2023/11/15 09:38:39;;;;;;;;;;;16.70;77.10;;;;;;5055055;28;19924;-68
2023/11/15 09:41:11;;;;;;;;;;;16.70;77.20;;;;;;5054383;28;20409;-67
2023/11/15 09:43:39;;;;;;;;;;;16.70;76.90;;;;;;5055183;28;20464;-69
2023/11/15 09:46:10;;;;;;;;;;;16.60;77.10;;;;;;5055362;28;19917;-69
2023/11/15 09:48:38;;;;;;;;;;;16.60;77.10;;;;;;5038441;28;19938;-68
2023/11/15 09:51:05;;;;;;;;;;;16.60;77.10;;;;;;5054012;28;19929;-67
2023/11/15 09:53:34;;;;;;;;;;;16.60;76.80;;;;;;5037799;28;19937;-69
2023/11/15 09:56:04;;;;;;;;;;;16.60;76.90;;;;;;5041308;28;20412;-67
2023/11/15 09:58:30;;;;;;;;;;;16.60;76.90;;;;;;5055278;28;19925;-67
2023/11/15 10:00:56;;;;;;;;;;;16.60;76.60;;;;;;5055456;28;19927;-69
2023/11/15 10:03:22;;;;;;;;;;;16.50;77.00;;;;;;5055689;28;19924;-69
2023/11/15 10:05:59;;;;;;;;;;;16.50;77.40;;;;;;5054583;28;19948;-68
2023/11/15 10:08:26;;;;;;;;;;;16.60;76.80;;;;;;5054525;28;19960;-69
2023/11/15 10:11:12;;;;;;;;;;;16.60;76.00;;;;;;5037324;28;19946;-67
2023/11/15 10:13:39;;;;;;;;;;;16.70;76.30;;;;;;5055927;28;20293;-69
2023/11/15 10:16:24;;;;;;;;;;;16.80;76.00;;;;;;5055561;28;19921;-69
2023/11/15 10:19:27;;;;;;;;;;;17.00;75.30;;;;;;5054481;28;19921;-67
2023/11/15 10:22:14;;;;;;;;;;;17.00;75.30;;;;;;5054345;28;20011;-69
2023/11/15 10:24:40;;;;;;;;;;;17.10;75.20;;;;;;5054748;28;19925;-69
2023/11/15 10:27:08;;;;;;;;;;;17.10;74.70;;;;;;5055042;28;19917;-69
2023/11/15 10:29:37;;;;;;;;;;;17.00;75.00;;;;;;5054392;28;20328;-67
2023/11/15 10:32:04;;;;;;;;;;;16.90;75.20;;;;;;5053363;28;19980;-69
2023/11/15 10:34:32;;;;;;;;;;;16.80;75.10;;;;;;5055382;28;19951;-69
2023/11/15 10:37:17;;;;;;;;;;;16.60;75.20;;;;;;5055303;28;19920;-69
2023/11/15 10:39:43;;;;;;;;;;;16.50;75.60;;;;;;5037352;28;19924;-67
2023/11/15 10:42:12;;;;;;;;;;;16.40;75.80;;;;;;5053362;28;19924;-69
2023/11/15 10:44:38;;;;;;;;;;;16.40;75.90;;;;;;5053936;28;20464;-67
2023/11/15 10:47:05;;;;;;;;;;;16.60;75.20;;;;;;5053599;28;20024;-68
2023/11/15 10:49:38;;;;;;;;;;;16.80;74.90;;;;;;5053609;28;19928;-67
2023/11/15 10:52:06;;;;;;;;;;;17.10;74.40;;;;;;5052808;28;19920;-67
2023/11/15 10:54:32;;;;;;;;;;;17.50;73.20;;;;;;5054704;28;19925;-68
2023/11/15 10:57:00;;;;;;;;;;;17.80;72.10;;;;;;5036973;28;20023;-68
2023/11/15 10:59:27;;;;;;;;;;;18.20;71.60;;;;;;5053515;28;19924;-69
2023/11/15 11:01:54;;;;;;;;;;;18.70;70.20;;;;;;5053032;28;20392;-67
2023/11/15 11:04:22;;;;;;;;;;;19.00;68.80;;;;;;5053389;28;19925;-67
2023/11/15 11:07:26;;;;;;;;;;;18.80;68.80;;;;;;5053409;28;19921;-68
2023/11/15 11:10:23;;;;;;;;;;;18.70;70.70;;;;;;5054504;28;20007;-69
2023/11/15 11:12:49;;;;;;;;;;;19.50;68.20;;;;;;5053127;28;19964;-67
2023/11/15 11:15:35;;;;;;;;;;;19.90;66.60;;;;;;5054440;28;19925;-69
2023/11/15 11:18:22;;;;;;;;;;;19.60;66.00;;;;;;5053284;28;20308;-67
2023/11/15 11:21:05;;;;;;;;;;;19.20;67.50;;;;;;5053857;28;20302;-69
2023/11/15 11:23:31;;;;;;;;;;;19.00;67.90;;;;;;5054445;28;19978;-67
2023/11/15 11:26:35;;;;;;;;;;;19.20;66.80;;;;;;5069679;28;20443;-67
2023/11/15 11:35:30;;;;;;;;;;;19.80;65.00;;;;;;5053691;28;20427;-67
2023/11/15 11:37:59;;;;;;;;;;;20.40;64.30;;;;;;5055113;28;20328;-68
2023/11/15 11:40:46;;;;;;;;;;;21.10;61.50;;;;;;5073260;28;19932;-67
2023/11/15 11:43:32;;;;;;;;;;;21.40;60.30;;;;;;5073956;28;20007;-68
2023/11/15 11:46:12;;;;;;;;;;;21.50;58.60;;;;;;5072870;28;19924;-67
2023/11/15 11:48:38;;;;;;;;;;;21.70;59.10;;;;;;5072695;28;19990;-67
2023/11/15 11:51:05;;;;;;;;;;;21.80;59.10;;;;;;5073332;28;20011;-69
2023/11/15 11:53:37;;;;;;;;;;;21.80;57.70;;;;;;5072178;28;19932;-69
2023/11/15 11:56:06;;;;;;;;;;;21.70;57.50;;;;;;5073776;28;19962;-67
2023/11/15 11:58:32;;;;;;;;;;;21.40;58.20;;;;;;5055651;28;20285;-69
2023/11/15 12:01:00;;;;;;;;;;;21.40;59.10;;;;;;5055443;28;19924;-68
2023/11/15 12:03:26;;;;;;;;;;;21.40;56.70;;;;;;5073622;28;20331;-67
2023/11/15 12:06:12;;;;;;;;;;;21.30;58.20;;;;;;5072316;28;19931;-69
2023/11/15 12:08:56;;;;;;;;;;;21.20;58.10;;;;;;5072293;28;19921;-69
2023/11/15 12:11:22;;;;;;;;;;;21.10;58.60;;;;;;5072851;28;19924;-69
2023/11/15 12:13:50;;;;;;;;;;;21.00;58.80;;;;;;5072181;28;19920;-68
2023/11/15 12:16:35;;;;;;;;;;;20.80;58.20;;;;;;5072257;28;19927;-69
2023/11/15 12:19:26;;;;;;;;;;;20.70;58.50;;;;;;5072085;28;19927;-68
2023/11/15 12:21:54;;;;;;;;;;;20.70;58.90;;;;;;5072838;28;20007;-68
2023/11/15 12:24:23;;;;;;;;;;;20.60;59.10;;;;;;5055720;28;19928;-67
2023/11/15 12:26:49;;;;;;;;;;;20.50;58.40;;;;;;5071983;28;19921;-68
2023/11/15 12:29:35;;;;;;;;;;;20.40;59.20;;;;;;5073373;28;19994;-67
2023/11/15 12:32:03;;;;;;;;;;;20.30;59.60;;;;;;5071055;28;19924;-69
2023/11/15 12:34:30;;;;;;;;;;;20.20;59.30;;;;;;5071817;28;19925;-68
2023/11/15 12:36:56;;;;;;;;;;;20.10;59.30;;;;;;5071631;28;20007;-67
2023/11/15 12:39:22;;;;;;;;;;;20.10;59.70;;;;;;5073361;28;19917;-68
2023/11/15 12:42:09;;;;;;;;;;;20.20;60.40;;;;;;5072628;28;20016;-68
2023/11/15 12:44:54;;;;;;;;;;;20.30;60.00;;;;;;5072696;28;19970;-68
2023/11/15 12:47:38;;;;;;;;;;;20.20;60.00;;;;;;5071574;28;19929;-67
2023/11/15 12:50:07;;;;;;;;;;;20.20;59.90;;;;;;5071142;28;20501;-69
2023/11/15 12:55:45;;;;;;;;;;;20.90;56.60;;;;;;5071136;28;20320;-69
2023/11/15 12:58:13;;;;;;;;;;;20.70;57.90;;;;;;5071712;28;19920;-67
2023/11/15 13:00:40;;;;;;;;;;;20.60;58.10;;;;;;5070919;28;19924;-68
2023/11/15 13:03:26;;;;;;;;;;;20.50;58.40;;;;;;5055046;28;19974;-68
2023/11/15 13:05:53;;;;;;;;;;;20.50;58.30;;;;;;5071554;28;19917;-68
2023/11/15 13:08:20;;;;;;;;;;;22.00;54.90;;;;;;5071466;28;19972;-68
2023/11/15 13:10:46;;;;;;;;;;;23.50;50.80;;;;;;5072069;28;19927;-68
2023/11/15 13:13:12;;;;;;;;;;;24.60;47.30;;;;;;5072840;28;20393;-68
2023/11/15 13:15:38;;;;;;;;;;;25.90;43.30;;;;;;5072522;28;19920;-69
2023/11/15 13:18:05;;;;;;;;;;;26.90;38.80;;;;;;5072745;28;19935;-68
2023/11/15 13:20:51;;;;;;;;;;;27.50;36.60;;;;;;5071901;28;19931;-68
2023/11/15 13:26:04;;;;;;;;;;;28.90;33.50;;;;;;5071492;28;19947;-68
2023/11/15 13:28:34;;;;;;;;;;;30.60;32.20;;;;;;5072483;28;19924;-68
2023/11/15 13:31:01;;;;;;;;;;;32.20;29.60;;;;;;5070625;28;20012;-68
2023/11/15 13:33:29;;;;;;;;;;;32.80;28.90;;;;;;5072647;28;19977;-68
2023/11/15 13:35:56;;;;;;;;;;;33.80;27.50;;;;;;5054616;28;19920;-68
2023/11/15 13:38:22;;;;;;;;;;;33.90;26.30;;;;;;5071175;28;20456;-69
2023/11/15 13:40:48;;;;;;;;;;;33.20;27.30;;;;;;5070611;28;19920;-68
2023/11/15 13:43:15;;;;;;;;;;;33.30;26.50;;;;;;5072699;28;20009;-68
2023/11/15 13:45:44;;;;;;;;;;;31.60;27.90;;;;;;5071162;28;19916;-68
2023/11/15 13:48:10;;;;;;;;;;;29.80;30.00;;;;;;5072469;28;19954;-68
2023/11/15 13:50:36;;;;;;;;;;;28.30;32.70;;;;;;5070181;28;19921;-67
2023/11/15 13:53:01;;;;;;;;;;;27.00;35.00;;;;;;5058060;28;20019;-68
2023/11/15 13:55:29;;;;;;;;;;;26.00;37.00;;;;;;5051860;28;20389;-68
2023/11/15 13:57:55;;;;;;;;;;;25.10;38.40;;;;;;5069584;28;19974;-67
2023/11/15 14:00:23;;;;;;;;;;;24.50;39.70;;;;;;5075150;28;19916;-68
2023/11/15 14:03:09;;;;;;;;;;;23.90;41.40;;;;;;5074440;28;19955;-67
2023/11/15 14:05:35;;;;;;;;;;;23.20;42.40;;;;;;5075642;28;19956;-67
2023/11/15 14:08:02;;;;;;;;;;;22.60;43.40;;;;;;5057553;28;20423;-67
2023/11/15 14:10:31;;;;;;;;;;;22.30;44.60;;;;;;5070264;28;20003;-68
2023/11/15 14:13:15;;;;;;;;;;;21.90;45.50;;;;;;5058870;28;19978;-68
2023/11/15 14:15:43;;;;;;;;;;;21.60;46.20;;;;;;5064868;28;19917;-67
2023/11/15 14:18:10;;;;;;;;;;;21.30;47.00;;;;;;5056285;28;20416;-68
2023/11/15 14:20:40;;;;;;;;;;;20.90;47.10;;;;;;5054489;28;19966;-67
2023/11/15 14:23:06;;;;;;;;;;;20.70;48.40;;;;;;5074962;28;19971;-70
2023/11/15 14:25:33;;;;;;;;;;;20.40;49.40;;;;;;5074137;28;19916;-67
2023/11/15 14:28:01;;;;;;;;;;;20.10;50.10;;;;;;5069952;28;19925;-68
2023/11/15 14:30:27;;;;;;;;;;;19.90;51.10;;;;;;5074754;28;19959;-66
2023/11/15 14:32:54;;;;;;;;;;;19.70;51.40;;;;;;5055157;28;19924;-70
2023/11/15 14:35:20;;;;;;;;;;;19.50;52.30;;;;;;5053502;28;19967;-68
2023/11/15 14:37:48;;;;;;;;;;;19.40;52.40;;;;;;5053962;28;19929;-67
2023/11/15 14:43:00;;;;;;;;;;;19.00;54.10;;;;;;5070100;28;19967;-67